Share

Gallivare, Sweden

8:42 PM CEST on April 24, 2014 (GMT +0200)
Gallivare (INORRBOT19) Elev 1240 ft | 67.16 °N, 20.63 °E | Change Station

Current weather conditions updated 12 minutes ago

Clear
Clear
41.4 °F
Feels Like 41 °F
N
0.3
Wind Variable Wind from West
Gusts 3.8 mph
Sunrise 4:14 AM
Sunset 8:59 PM
Moon Waning Crescent

Tomorrow is forecast to be Cooler than today.

Pressure 30.21 in
Visibility -9999.0 miles
Clouds
Windchill 41 °F
Dew Point 20 °F
Humidity 41%
Rainfall 0.00 in
Snow Depth Not available.
UV Not available.
Pollen Not available.
Air Quality Not available.
Flu Activity Not available.
METAR ESNG 241820Z 24006KT CAVOK 07/M06 Q1023

More Conditions Fewer Conditions

Pressure 30.21 in
Visibility -9999.0 miles
Clouds
Windchill 41 °F
Dew Point 20 °F
Humidity 41%
Rainfall 0.00 in
Snow Depth Not available.
UV Not available.
Pollen Not available.
Air Quality Not available.
Flu Activity Not available.
METAR ESNG 241820Z 24006KT CAVOK 07/M06 Q1023

More Conditions Fewer Conditions

10-Day Weather Forecast

Almanac

Astronomy

Apr. 24, 2014 Rise Set
Actual Time 4:14 AM CEST 8:59 PM CEST
Civil Twilight 2:57 AM CEST 10:18 PM CEST
Nautical Twilight 1:08 AM CEST Sun does not rise
Astronomical Twilight Sun does not rise Sun does not rise
Moon 3:40 AM CEST 1:37 PM CEST
Length of Visible Light 19h 20m
Length of Day
16h 44m
Tomorrow will be 8m 8s longer.
Waning Crescent, 23% of the Moon is Illuminated
Today
Waning Crescent
Apr 29
New
May 6
First Quarter
May 14
Full
May 21
Last Quarter

Today's Extremes

Country Highs Country Lows

Community

  • Sunset at Apalachicola Bay, Florida
    Sunset at Apalachicola Bay, Florida
  • Clouds mov'n in
    Clouds mov'n in
  • Stacked
    Stacked
  • clouds approaching Red Sox Nation
    clouds approaching Red Sox Nation
  • Balance
    Balance

WunderPhotos

Upload Photos

1,704,688 photos uploaded!

Nearby

Snow Depth

Not available.

Coastal Water Temperatures

Place Temperature
No Stations Reporting

Earthquake Activity

City Distance Mag. Time & Date
No recent earthquake activity has been reported nearby.
Minimum magnitude displayed is 2.5.

Nearby Weather Stations

Station Location Temp. Windchill Dew Point Humidity Wind Precip. Elev Updated Type
Gallivare, Malmberget 41.4 °F 41 °F 20 °F 41% West  at  0.3 mph 0.00 in / hr 1240 ft 8:30 PM CEST Normal
Gellivare 42.3 °F 42 °F 22 °F 45% North  at  2.2 mph 0.00 in / hr 1000 ft 8:39 PM CEST Normal

Show More Stations Show Fewer Stations

What do you think?

We're not finished. Please let us know what you like, what you don't like, and what you are still missing.